createdAt,value
2023-01-26T00:01:10.427Z,11.35
2023-01-26T00:03:37.187Z,10.95
2023-01-26T00:06:08.442Z,10.70
2023-01-26T00:08:43.713Z,10.52
2023-01-26T00:11:12.403Z,10.10
2023-01-26T00:13:39.348Z,10.23
2023-01-26T00:16:10.252Z,10.43
2023-01-26T00:18:38.302Z,10.55
2023-01-26T00:21:05.868Z,10.70
2023-01-26T00:23:33.684Z,9.65
2023-01-26T00:26:01.100Z,9.75
2023-01-26T00:28:28.444Z,10.10
2023-01-26T00:31:05.674Z,10.23
2023-01-26T00:33:32.357Z,12.40
2023-01-26T00:35:59.137Z,9.55
2023-01-26T00:38:27.197Z,9.63
2023-01-26T00:40:54.127Z,9.43
2023-01-26T00:43:20.801Z,8.07
2023-01-26T00:45:47.517Z,8.25
2023-01-26T00:48:14.135Z,7.90
2023-01-26T00:50:40.847Z,8.70
2023-01-26T00:53:09.864Z,8.43
2023-01-26T00:55:36.606Z,7.85
2023-01-26T00:58:05.556Z,9.70
2023-01-26T01:00:33.831Z,10.18
2023-01-26T01:03:00.555Z,9.73
2023-01-26T01:05:28.910Z,10.68
2023-01-26T01:07:55.728Z,9.20
2023-01-26T01:10:22.827Z,8.23
2023-01-26T01:12:49.552Z,7.80
2023-01-26T01:15:16.870Z,7.97
2023-01-26T01:17:43.621Z,8.27
2023-01-26T01:20:11.652Z,7.50
2023-01-26T01:22:38.646Z,8.73
2023-01-26T01:25:05.501Z,9.48
2023-01-26T01:27:32.176Z,8.10
2023-01-26T01:29:58.955Z,8.32
2023-01-26T01:32:25.587Z,8.30
2023-01-26T01:34:52.187Z,8.60
2023-01-26T01:37:18.768Z,7.97
2023-01-26T01:39:45.858Z,9.13
2023-01-26T01:42:12.479Z,9.35
2023-01-26T01:44:39.352Z,7.95
2023-01-26T01:47:13.365Z,9.35
2023-01-26T01:49:46.797Z,9.30
2023-01-26T01:52:19.996Z,8.00
2023-01-26T01:54:54.596Z,7.63
2023-01-26T01:57:28.506Z,7.13
2023-01-26T02:00:06.696Z,8.40
2023-01-26T02:02:41.069Z,7.70
2023-01-26T02:05:13.724Z,5.40
2023-01-26T02:07:40.872Z,5.57
2023-01-26T02:10:20.588Z,6.80
2023-01-26T02:12:51.097Z,5.30
2023-01-26T02:15:17.785Z,6.25
2023-01-26T02:17:44.430Z,7.05
2023-01-26T02:20:20.003Z,7.22
2023-01-26T02:23:07.325Z,7.10
2023-01-26T02:26:05.285Z,6.60
2023-01-26T02:28:33.372Z,6.72
2023-01-26T02:31:00.794Z,6.80
2023-01-26T02:33:29.624Z,4.78
2023-01-26T02:36:02.581Z,6.35
2023-01-26T02:38:39.307Z,4.72
2023-01-26T02:41:08.310Z,6.75
2023-01-26T02:43:35.143Z,4.85
2023-01-26T02:46:04.201Z,5.18
2023-01-26T02:48:51.549Z,4.38
2023-01-26T02:51:18.367Z,5.53
2023-01-26T02:53:46.864Z,1.60
2023-01-26T02:56:13.576Z,3.83
2023-01-26T02:58:41.356Z,2.83
2023-01-26T03:01:08.071Z,4.00
2023-01-26T03:03:46.379Z,4.30
2023-01-26T03:06:15.203Z,2.67
2023-01-26T03:08:42.105Z,3.10
2023-01-26T03:11:09.201Z,3.97
2023-01-26T03:13:36.184Z,4.00
2023-01-26T03:16:07.386Z,4.38
2023-01-26T03:18:54.133Z,5.82
2023-01-26T03:21:42.418Z,3.88
2023-01-26T03:24:33.529Z,3.90
2023-01-26T03:27:22.389Z,4.28
2023-01-26T03:29:50.458Z,3.90
2023-01-26T03:32:17.708Z,4.53
2023-01-26T03:34:44.449Z,8.23
2023-01-26T03:37:11.745Z,3.97
2023-01-26T03:40:10.860Z,3.72
2023-01-26T03:42:57.321Z,3.73
2023-01-26T03:45:42.531Z,4.90
2023-01-26T03:48:30.692Z,5.32
2023-01-26T03:51:17.343Z,4.15
2023-01-26T03:54:02.816Z,3.97
2023-01-26T03:56:32.551Z,4.20
2023-01-26T03:59:09.202Z,4.97
2023-01-26T04:01:41.640Z,4.47
2023-01-26T04:04:27.630Z,4.80
2023-01-26T04:07:13.748Z,5.90
2023-01-26T04:09:45.646Z,5.35
2023-01-26T04:12:14.212Z,4.22
2023-01-26T04:15:23.405Z,4.53
2023-01-26T04:18:08.762Z,3.50
2023-01-26T04:20:54.031Z,3.30
2023-01-26T04:23:21.501Z,3.30
2023-01-26T04:25:50.407Z,4.05
2023-01-26T04:28:17.525Z,4.53
2023-01-26T04:30:45.886Z,4.45
2023-01-26T04:33:12.651Z,4.47
2023-01-26T04:35:40.206Z,3.80
2023-01-26T04:38:07.067Z,3.70
2023-01-26T04:40:34.669Z,4.72
2023-01-26T04:43:01.875Z,4.45
2023-01-26T04:45:28.674Z,3.47
2023-01-26T04:47:55.457Z,3.70
2023-01-26T04:50:22.038Z,3.60
2023-01-26T04:52:48.846Z,3.10
2023-01-26T04:55:16.599Z,3.50
2023-01-26T04:57:44.256Z,3.55
2023-01-26T05:00:12.266Z,5.60
2023-01-26T05:02:40.301Z,5.20
2023-01-26T05:05:08.781Z,5.13
2023-01-26T05:07:36.152Z,5.32
2023-01-26T05:10:03.708Z,4.78
2023-01-26T05:12:43.366Z,4.30
2023-01-26T05:15:28.634Z,5.05
2023-01-26T05:18:12.649Z,4.05
2023-01-26T05:20:48.179Z,3.78
2023-01-26T05:23:17.409Z,4.68
2023-01-26T05:26:03.792Z,4.05
2023-01-26T05:28:36.309Z,3.28
2023-01-26T05:31:03.183Z,2.97
2023-01-26T05:33:30.718Z,3.75
2023-01-26T05:36:04.663Z,3.30
2023-01-26T05:38:32.275Z,3.83
2023-01-26T05:40:59.273Z,4.30
2023-01-26T05:43:26.426Z,4.32
2023-01-26T05:46:09.355Z,5.07
2023-01-26T05:48:39.006Z,4.65
2023-01-26T05:51:06.339Z,3.83
2023-01-26T05:53:35.323Z,3.50
2023-01-26T05:56:01.967Z,3.20
2023-01-26T05:58:30.672Z,3.47
2023-01-26T06:00:57.458Z,4.10
2023-01-26T06:03:29.720Z,4.13
2023-01-26T06:05:56.391Z,3.90
2023-01-26T06:08:32.360Z,4.28
2023-01-26T06:11:19.288Z,3.72
2023-01-26T06:13:56.816Z,3.75
2023-01-26T06:16:25.407Z,3.65
2023-01-26T06:18:52.247Z,2.95
2023-01-26T06:21:19.307Z,3.55
2023-01-26T06:23:46.117Z,5.05
2023-01-26T06:26:15.165Z,4.28
2023-01-26T06:28:41.987Z,3.85
2023-01-26T06:31:10.701Z,3.55
2023-01-26T06:33:38.782Z,3.50
2023-01-26T06:36:11.608Z,3.33
2023-01-26T06:38:39.478Z,3.35
2023-01-26T06:41:07.911Z,3.67
2023-01-26T06:43:35.536Z,5.05
2023-01-26T06:46:04.846Z,3.80
2023-01-26T06:48:34.250Z,3.47
2023-01-26T06:51:44.930Z,3.92
2023-01-26T06:54:12.943Z,3.38
2023-01-26T06:57:09.054Z,3.53
2023-01-26T06:59:41.477Z,3.85
2023-01-26T07:02:24.206Z,3.00
2023-01-26T07:04:51.266Z,5.18
2023-01-26T07:07:17.879Z,3.40
2023-01-26T07:09:44.657Z,3.60
2023-01-26T07:12:11.274Z,4.20
2023-01-26T07:14:37.919Z,3.97
2023-01-26T07:17:04.561Z,4.05
2023-01-26T07:19:33.191Z,4.10
2023-01-26T07:22:00.562Z,4.00
2023-01-26T07:24:27.369Z,4.25
2023-01-26T07:26:54.101Z,3.75
2023-01-26T07:29:20.804Z,3.58
2023-01-26T07:31:47.618Z,3.38
2023-01-26T07:34:14.304Z,3.25
2023-01-26T07:36:41.266Z,4.03
2023-01-26T07:39:08.845Z,3.67
2023-01-26T07:41:35.642Z,3.78
2023-01-26T07:44:12.770Z,3.72
2023-01-26T07:46:39.908Z,3.55
2023-01-26T07:49:06.596Z,2.90
2023-01-26T07:51:33.597Z,3.03
2023-01-26T07:54:00.352Z,3.70
2023-01-26T07:56:27.156Z,3.22
2023-01-26T07:58:54.809Z,2.78
2023-01-26T08:01:21.912Z,3.35
2023-01-26T08:03:50.949Z,3.17
2023-01-26T08:06:18.473Z,3.00
2023-01-26T08:08:50.878Z,3.03
2023-01-26T08:11:19.349Z,3.28
2023-01-26T08:13:46.099Z,3.10
2023-01-26T08:16:13.116Z,3.70
2023-01-26T08:18:44.294Z,3.88
2023-01-26T08:21:12.685Z,4.20
2023-01-26T08:23:40.501Z,4.32
2023-01-26T08:26:10.192Z,3.10
2023-01-26T08:28:36.974Z,2.78
2023-01-26T08:31:12.003Z,3.30
2023-01-26T08:33:40.515Z,3.05
2023-01-26T08:36:10.239Z,3.30
2023-01-26T08:38:37.307Z,3.58
2023-01-26T08:41:04.036Z,4.15
2023-01-26T08:43:30.796Z,3.40
2023-01-26T08:45:57.890Z,3.55
2023-01-26T08:48:24.720Z,3.63
2023-01-26T08:50:55.656Z,3.53
2023-01-26T08:53:23.279Z,4.10
2023-01-26T08:55:50.364Z,2.92
2023-01-26T08:58:17.495Z,4.20
2023-01-26T09:00:44.159Z,4.50
2023-01-26T09:03:10.925Z,4.30
2023-01-26T09:05:39.884Z,4.32
2023-01-26T09:08:08.097Z,4.75
2023-01-26T09:10:36.769Z,5.53
2023-01-26T09:13:03.315Z,6.10
2023-01-26T09:15:30.207Z,4.72
2023-01-26T09:17:58.574Z,6.32
2023-01-26T09:20:26.583Z,7.75
2023-01-26T09:22:53.281Z,7.93
2023-01-26T09:25:19.877Z,6.95
2023-01-26T09:27:46.551Z,6.28
2023-01-26T09:30:13.789Z,5.38
2023-01-26T09:32:40.411Z,5.47
2023-01-26T09:35:14.330Z,5.95
2023-01-26T09:37:43.356Z,6.05
2023-01-26T09:40:17.246Z,5.60
2023-01-26T09:43:09.287Z,5.30
2023-01-26T09:45:43.638Z,5.75
2023-01-26T09:48:35.243Z,5.72
2023-01-26T09:51:07.321Z,6.53
2023-01-26T09:53:41.666Z,5.65
2023-01-26T09:56:16.534Z,5.30
2023-01-26T09:59:06.573Z,6.40
2023-01-26T10:01:42.724Z,6.53
2023-01-26T10:04:19.516Z,5.93
2023-01-26T10:06:46.167Z,5.55
2023-01-26T10:09:46.014Z,6.07
2023-01-26T10:12:28.931Z,5.85
2023-01-26T10:15:00.576Z,6.18
2023-01-26T10:17:32.095Z,7.18
2023-01-26T10:20:04.218Z,8.73
2023-01-26T10:22:52.363Z,8.00
2023-01-26T10:25:34.082Z,6.57
2023-01-26T10:28:30.923Z,5.70
2023-01-26T10:30:57.826Z,6.45
2023-01-26T10:33:35.259Z,7.35
2023-01-26T10:36:03.231Z,6.90
2023-01-26T10:38:32.839Z,8.52
2023-01-26T10:41:04.692Z,7.15
2023-01-26T10:43:36.040Z,7.85
2023-01-26T10:46:04.234Z,6.65
2023-01-26T10:48:31.120Z,8.60
2023-01-26T10:51:15.637Z,6.13
2023-01-26T10:53:42.382Z,6.45
2023-01-26T10:56:17.040Z,7.20
2023-01-26T10:58:46.709Z,7.00
2023-01-26T11:01:18.680Z,6.97
2023-01-26T11:04:12.359Z,7.18
2023-01-26T11:06:39.315Z,7.50
2023-01-26T11:09:31.413Z,6.72
2023-01-26T11:12:03.610Z,7.50
2023-01-26T11:14:31.917Z,7.35
2023-01-26T11:17:09.886Z,7.45
2023-01-26T11:19:46.526Z,7.43
2023-01-26T11:22:41.638Z,7.57
2023-01-26T11:25:23.374Z,7.97
2023-01-26T11:28:00.514Z,8.02
2023-01-26T11:30:44.761Z,8.27
2023-01-26T11:33:18.783Z,8.10
2023-01-26T11:35:53.867Z,8.38
2023-01-26T11:38:35.555Z,8.98
2023-01-26T11:41:29.282Z,8.00
2023-01-26T11:44:03.255Z,8.18
2023-01-26T11:46:52.306Z,9.52
2023-01-26T11:49:43.862Z,7.47
2023-01-26T11:52:29.025Z,8.85
2023-01-26T11:54:55.713Z,8.60
2023-01-26T11:57:56.594Z,8.13
2023-01-26T12:00:44.427Z,7.47
2023-01-26T12:03:30.127Z,9.57
2023-01-26T12:06:04.288Z,8.25
2023-01-26T12:08:43.448Z,10.85
2023-01-26T12:11:22.138Z,8.15
2023-01-26T12:14:00.967Z,8.13
2023-01-26T12:16:36.381Z,8.90
2023-01-26T12:19:24.388Z,9.13
2023-01-26T12:21:54.190Z,9.23
2023-01-26T12:25:20.180Z,9.50
2023-01-26T12:27:53.666Z,9.60
2023-01-26T12:30:30.771Z,9.65
2023-01-26T12:32:57.431Z,8.77
2023-01-26T12:35:36.224Z,9.57
2023-01-26T12:38:19.621Z,9.18
2023-01-26T12:41:14.614Z,10.55
2023-01-26T12:44:11.073Z,10.98
2023-01-26T12:46:41.130Z,11.23
2023-01-26T12:49:40.326Z,9.75
2023-01-26T12:52:12.759Z,9.70
2023-01-26T12:55:04.492Z,10.85
2023-01-26T12:57:40.366Z,10.25
2023-01-26T13:00:18.738Z,9.63
2023-01-26T13:02:47.132Z,9.40
2023-01-26T13:05:27.032Z,9.80
2023-01-26T13:07:53.845Z,11.52
2023-01-26T13:10:26.246Z,10.82
2023-01-26T13:12:56.040Z,10.77
2023-01-26T13:15:33.321Z,10.75
2023-01-26T13:18:04.105Z,9.52
2023-01-26T13:20:40.028Z,9.85
2023-01-26T13:23:39.473Z,9.90
2023-01-26T13:26:15.415Z,9.83
2023-01-26T13:28:42.387Z,10.10
2023-01-26T13:31:10.284Z,10.30
2023-01-26T13:33:36.995Z,8.82
2023-01-26T13:36:10.033Z,9.75
2023-01-26T13:39:01.279Z,10.20
2023-01-26T13:41:28.037Z,10.20
2023-01-26T13:44:06.079Z,8.02
2023-01-26T13:46:52.615Z,9.27
2023-01-26T13:49:39.144Z,8.68
2023-01-26T13:52:26.248Z,9.57
2023-01-26T13:54:54.953Z,7.05
2023-01-26T13:57:27.518Z,7.05
2023-01-26T13:59:58.975Z,9.02
2023-01-26T14:02:33.615Z,8.75
2023-01-26T14:05:02.551Z,8.57
2023-01-26T14:07:38.556Z,7.50
2023-01-26T14:10:06.585Z,7.90
2023-01-26T14:12:43.334Z,7.40
2023-01-26T14:15:28.644Z,7.28
2023-01-26T14:18:03.125Z,8.27
2023-01-26T14:20:36.439Z,7.22
2023-01-26T14:23:14.741Z,9.65
2023-01-26T14:26:21.905Z,7.70
2023-01-26T14:28:48.607Z,7.32
2023-01-26T14:31:26.490Z,7.68
2023-01-26T14:33:57.318Z,7.38
2023-01-26T14:36:33.899Z,7.00
2023-01-26T14:39:01.101Z,7.05
2023-01-26T14:41:30.650Z,7.53
2023-01-26T14:44:01.876Z,7.10
2023-01-26T14:46:47.335Z,6.95
2023-01-26T14:49:18.731Z,6.38
2023-01-26T14:51:46.178Z,6.65
2023-01-26T14:54:27.410Z,6.35
2023-01-26T14:56:54.127Z,6.70
2023-01-26T14:59:29.100Z,6.88
2023-01-26T15:02:05.190Z,7.43
2023-01-26T15:04:37.087Z,6.63
2023-01-26T15:07:22.279Z,7.60
2023-01-26T15:09:53.171Z,6.97
2023-01-26T15:12:19.855Z,6.55
2023-01-26T15:14:46.526Z,7.80
2023-01-26T15:17:41.906Z,7.38
2023-01-26T15:20:28.749Z,6.80
2023-01-26T15:22:55.491Z,6.90
2023-01-26T15:25:28.087Z,7.75
2023-01-26T15:28:01.199Z,7.97
2023-01-26T15:30:30.613Z,8.20
2023-01-26T15:32:57.812Z,8.63
2023-01-26T15:35:25.544Z,7.78
2023-01-26T15:38:13.071Z,7.30
2023-01-26T15:40:40.156Z,7.70
2023-01-26T15:43:17.641Z,7.50
2023-01-26T15:45:55.418Z,7.80
2023-01-26T15:48:23.981Z,7.65
2023-01-26T15:50:50.962Z,8.13
2023-01-26T15:53:20.116Z,7.60
2023-01-26T15:55:55.823Z,6.90
2023-01-26T15:58:23.633Z,8.18
2023-01-26T16:00:50.882Z,7.30
2023-01-26T16:03:19.347Z,7.40
2023-01-26T16:05:49.177Z,8.18
2023-01-26T16:08:17.461Z,7.90
2023-01-26T16:10:44.509Z,7.43
2023-01-26T16:13:12.515Z,7.80
2023-01-26T16:15:50.618Z,7.88
2023-01-26T16:18:19.169Z,8.82
2023-01-26T16:20:47.424Z,7.70
2023-01-26T16:23:20.005Z,7.80
2023-01-26T16:25:47.525Z,7.43
2023-01-26T16:28:14.668Z,7.88
2023-01-26T16:30:46.102Z,7.32
2023-01-26T16:33:15.143Z,8.27
2023-01-26T16:35:42.238Z,9.02
2023-01-26T16:38:12.794Z,7.72
2023-01-26T16:40:40.689Z,8.07
2023-01-26T16:43:15.697Z,8.13
2023-01-26T16:45:42.423Z,9.40
2023-01-26T16:48:13.899Z,9.35
2023-01-26T16:50:42.828Z,10.10
2023-01-26T16:53:30.436Z,8.88
2023-01-26T16:55:57.396Z,9.15
2023-01-26T16:58:26.424Z,9.65
2023-01-26T17:00:54.626Z,11.15
2023-01-26T17:03:21.472Z,8.80
2023-01-26T17:05:50.336Z,9.27
2023-01-26T17:08:17.051Z,9.57
2023-01-26T17:11:00.728Z,9.93
2023-01-26T17:13:28.541Z,10.15
2023-01-26T17:15:56.574Z,10.10
2023-01-26T17:18:23.302Z,10.13
2023-01-26T17:20:49.870Z,9.88
2023-01-26T17:23:16.502Z,9.18
2023-01-26T17:25:43.247Z,9.38
2023-01-26T17:28:09.917Z,9.13
2023-01-26T17:30:37.538Z,10.05
2023-01-26T17:33:04.387Z,8.88
2023-01-26T17:35:31.016Z,10.85
2023-01-26T17:37:57.792Z,10.60
2023-01-26T17:40:24.445Z,11.02
2023-01-26T17:42:51.181Z,11.38
2023-01-26T17:45:17.956Z,11.55
2023-01-26T17:47:44.604Z,11.45
2023-01-26T17:50:11.404Z,12.82
2023-01-26T17:52:38.122Z,12.55
2023-01-26T17:55:06.324Z,12.80
2023-01-26T17:57:33.846Z,12.43
2023-01-26T18:00:00.669Z,11.90
2023-01-26T18:02:27.420Z,12.38
2023-01-26T18:04:54.070Z,12.48
2023-01-26T18:07:20.796Z,13.35
2023-01-26T18:09:47.426Z,15.30
2023-01-26T18:12:14.003Z,13.98
2023-01-26T18:14:40.636Z,13.60
2023-01-26T18:17:07.296Z,13.68
2023-01-26T18:19:33.951Z,13.88
2023-01-26T18:22:00.628Z,14.18
2023-01-26T18:24:27.393Z,13.57
2023-01-26T18:26:54.133Z,14.63
2023-01-26T18:29:20.762Z,15.48
2023-01-26T18:31:48.210Z,15.55
2023-01-26T18:34:14.823Z,15.43
2023-01-26T18:36:41.619Z,14.68
2023-01-26T18:39:12.524Z,15.07
2023-01-26T18:41:40.678Z,14.63
2023-01-26T18:44:08.532Z,13.55
2023-01-26T18:46:35.451Z,14.75
2023-01-26T18:49:03.684Z,16.30
2023-01-26T18:51:32.395Z,17.13
2023-01-26T18:53:59.250Z,18.42
2023-01-26T18:56:25.985Z,18.15
2023-01-26T18:58:53.705Z,15.32
2023-01-26T19:01:21.255Z,15.10
2023-01-26T19:03:53.903Z,12.55
2023-01-26T19:06:21.451Z,12.30
2023-01-26T19:08:57.408Z,12.57
2023-01-26T19:11:26.489Z,13.05
2023-01-26T19:13:53.117Z,14.32
2023-01-26T19:16:19.911Z,19.55
2023-01-26T19:18:46.535Z,14.55
2023-01-26T19:21:13.194Z,22.08
2023-01-26T19:23:42.508Z,17.30
2023-01-26T19:26:14.130Z,11.63
2023-01-26T19:28:41.946Z,11.77
2023-01-26T19:31:10.175Z,11.23
2023-01-26T19:33:38.655Z,12.02
2023-01-26T19:36:06.960Z,16.52
2023-01-26T19:38:34.850Z,10.45
2023-01-26T19:41:02.204Z,7.93
2023-01-26T19:43:29.302Z,8.50
2023-01-26T19:45:56.818Z,8.40
2023-01-26T19:48:25.844Z,8.68
2023-01-26T19:51:03.948Z,8.73
2023-01-26T19:53:32.387Z,9.07
2023-01-26T19:55:59.903Z,8.85
2023-01-26T19:58:27.831Z,9.18
2023-01-26T20:00:59.430Z,9.75
2023-01-26T20:03:26.218Z,9.88
2023-01-26T20:05:52.893Z,9.18
2023-01-26T20:08:19.661Z,10.15
2023-01-26T20:10:46.526Z,9.15
2023-01-26T20:13:13.185Z,9.43
2023-01-26T20:15:40.504Z,9.40
2023-01-26T20:18:07.709Z,11.60
2023-01-26T20:20:34.658Z,12.30
2023-01-26T20:23:01.433Z,9.82
2023-01-26T20:25:28.760Z,10.07
2023-01-26T20:27:55.553Z,10.05
2023-01-26T20:30:22.469Z,9.88
2023-01-26T20:32:52.401Z,11.32
2023-01-26T20:35:19.067Z,10.00
2023-01-26T20:37:45.660Z,10.70
2023-01-26T20:40:12.938Z,9.88
2023-01-26T20:42:39.642Z,9.43
2023-01-26T20:45:06.490Z,10.00
2023-01-26T20:47:36.619Z,9.32
2023-01-26T20:50:03.448Z,9.77
2023-01-26T20:52:30.436Z,8.48
2023-01-26T20:54:57.429Z,9.75
2023-01-26T20:57:24.155Z,11.18
2023-01-26T20:59:50.770Z,10.43
2023-01-26T21:02:17.659Z,11.05
2023-01-26T21:04:44.319Z,9.50
2023-01-26T21:07:11.269Z,9.90
2023-01-26T21:09:37.944Z,8.68
2023-01-26T21:12:04.862Z,7.38
2023-01-26T21:14:32.651Z,7.60
2023-01-26T21:16:59.455Z,6.75
2023-01-26T21:19:26.325Z,7.35
2023-01-26T21:21:52.973Z,7.28
2023-01-26T21:24:19.638Z,7.30
2023-01-26T21:26:47.816Z,6.65
2023-01-26T21:29:15.696Z,5.80
2023-01-26T21:31:43.018Z,7.32
2023-01-26T21:34:09.795Z,7.90
2023-01-26T21:36:36.477Z,7.03
2023-01-26T21:39:03.327Z,5.95
2023-01-26T21:41:50.662Z,5.68
2023-01-26T21:44:19.694Z,5.57
2023-01-26T21:46:47.664Z,5.13
2023-01-26T21:49:14.940Z,5.75
2023-01-26T21:52:00.340Z,5.45
2023-01-26T21:54:29.403Z,4.75
2023-01-26T21:56:56.832Z,5.32
2023-01-26T21:59:23.564Z,5.40
2023-01-26T22:01:52.447Z,5.53
2023-01-26T22:04:27.108Z,5.70
2023-01-26T22:06:55.536Z,5.32
2023-01-26T22:09:23.735Z,5.60
2023-01-26T22:11:51.195Z,5.28
2023-01-26T22:14:20.858Z,5.63
2023-01-26T22:16:47.742Z,6.15
2023-01-26T22:19:14.631Z,6.32
2023-01-26T22:21:41.335Z,5.93
2023-01-26T22:24:11.641Z,5.60
2023-01-26T22:26:39.144Z,5.90
2023-01-26T22:29:05.852Z,6.05
2023-01-26T22:31:32.986Z,5.85
2023-01-26T22:34:00.590Z,6.82
2023-01-26T22:36:28.073Z,6.18
2023-01-26T22:38:54.836Z,6.65
2023-01-26T22:41:26.543Z,6.68
2023-01-26T22:43:55.157Z,6.18
2023-01-26T22:46:23.517Z,6.90
2023-01-26T22:48:50.577Z,6.78
2023-01-26T22:51:20.323Z,6.90
2023-01-26T22:53:48.464Z,7.15
2023-01-26T22:56:15.370Z,7.82
2023-01-26T22:58:56.598Z,7.45
2023-01-26T23:01:25.116Z,8.38
2023-01-26T23:03:53.298Z,7.28
2023-01-26T23:06:20.435Z,7.88
2023-01-26T23:08:47.033Z,8.45
2023-01-26T23:11:19.255Z,7.88
2023-01-26T23:13:47.375Z,8.02
2023-01-26T23:16:14.727Z,8.60
2023-01-26T23:18:42.058Z,8.68
2023-01-26T23:21:09.585Z,8.70
2023-01-26T23:23:36.652Z,9.93
2023-01-26T23:26:03.373Z,8.98
2023-01-26T23:28:36.702Z,9.43
2023-01-26T23:31:04.053Z,8.20
2023-01-26T23:33:31.879Z,8.32
2023-01-26T23:35:58.707Z,8.75
2023-01-26T23:38:27.761Z,9.27
2023-01-26T23:40:54.600Z,8.27
2023-01-26T23:43:21.309Z,7.97
2023-01-26T23:45:49.480Z,8.13
2023-01-26T23:48:16.858Z,9.15
2023-01-26T23:50:43.538Z,8.82
2023-01-26T23:53:10.367Z,9.20
2023-01-26T23:55:41.084Z,9.30
2023-01-26T23:58:08.020Z,8.77
